Time;durP1;ratioP1;P1;durP2;ratioP2;P2;SDS_P1;SDS_P2;PMS_P1;PMS_P2;Temp;Humidity;BMP_temperature;BMP_pressure;BME280_temperature;BME280_humidity;BME280_pressure;Samples;Min_cycle;Max_cycle;Signal;HPM_P1;HPM_P2
2022/03/31 00:00:46;;;;;;;45.63;22.43;;;;;;;6.79;64.19;94341.27;1762391;81;21062;-62
2022/03/31 00:03:17;;;;;;;51.90;25.03;;;;;;;6.83;64.58;94335.48;1762657;81;20991;-62
2022/03/31 00:05:45;;;;;;;40.13;21.57;;;;;;;6.87;64.65;94324.04;1762410;81;21002;-62
2022/03/31 00:08:14;;;;;;;36.57;20.00;;;;;;;6.91;64.49;94314.75;1762346;81;20987;-62
2022/03/31 00:10:47;;;;;;;34.43;19.73;;;;;;;6.91;64.43;94309.51;1762618;81;21054;-62
2022/03/31 00:13:18;;;;;;;31.27;18.17;;;;;;;6.91;64.63;94308.20;1762430;81;21481;-61
2022/03/31 00:15:46;;;;;;;32.63;17.33;;;;;;;6.90;64.42;94303.87;1762366;81;21023;-62
2022/03/31 00:18:15;;;;;;;24.33;14.07;;;;;;;6.94;64.36;94292.37;1762533;81;21038;-62
2022/03/31 00:20:42;;;;;;;29.57;15.37;;;;;;;6.83;64.83;94297.47;1762476;81;21027;-62
2022/03/31 00:23:08;;;;;;;28.10;14.43;;;;;;;6.71;65.83;94289.48;1762525;81;21031;-62
2022/03/31 00:25:35;;;;;;;21.90;11.70;;;;;;;6.69;65.15;94288.20;1762461;81;21504;-62
2022/03/31 00:28:03;;;;;;;44.47;21.63;;;;;;;6.65;65.10;94285.27;1762346;81;20991;-62
2022/03/31 00:30:32;;;;;;;38.50;19.67;;;;;;;6.60;65.90;94285.82;1762345;81;21536;-62
2022/03/31 00:33:00;;;;;;;25.23;12.53;;;;;;;6.61;65.82;94282.29;1762769;81;21015;-62
2022/03/31 00:35:27;;;;;;;20.37;11.93;;;;;;;6.64;65.52;94278.73;1762186;81;21473;-62
2022/03/31 00:37:53;;;;;;;19.30;10.70;;;;;;;6.62;66.48;94282.69;1762586;81;21023;-63
2022/03/31 00:40:22;;;;;;;18.97;11.07;;;;;;;6.58;66.03;94282.83;1762071;81;21086;-63
2022/03/31 00:42:55;;;;;;;14.07;8.90;;;;;;;6.52;66.62;94285.58;1762581;81;21038;-62
2022/03/31 00:45:46;;;;;;;20.80;9.90;;;;;;;6.42;67.04;94292.79;1726209;83;21035;-62
2022/03/31 00:48:03;;;;;;;17.57;9.40;;;;;;;6.39;67.08;94285.01;1723796;83;21023;-61
2022/03/31 00:50:33;;;;;;;18.87;7.80;;;;;;;6.38;66.38;94278.91;1726488;83;20978;-62
2022/03/31 00:52:59;;;;;;;16.97;7.90;;;;;;;6.39;66.02;94274.07;1726314;83;21051;-61
2022/03/31 00:55:26;;;;;;;15.20;7.70;;;;;;;6.45;65.79;94264.77;1725996;83;20979;-61
2022/03/31 00:57:55;;;;;;;15.33;7.73;;;;;;;6.43;66.51;94278.36;1726320;83;21488;-62
2022/03/31 01:00:22;;;;;;;10.87;6.63;;;;;;;6.39;65.95;94274.53;1726192;83;21045;-61
2022/03/31 01:02:49;;;;;;;16.67;7.53;;;;;;;6.33;65.57;94269.45;1726341;83;21500;-61
2022/03/31 01:05:16;;;;;;;20.50;8.50;;;;;;;6.26;66.91;94265.64;1726064;83;21112;-61
2022/03/31 01:07:43;;;;;;;18.20;8.83;;;;;;;6.22;66.58;94264.44;1726421;83;20967;-61
2022/03/31 01:10:12;;;;;;;16.23;8.40;;;;;;;6.16;67.27;94271.99;1726347;83;21042;-61
2022/03/31 01:12:39;;;;;;;17.13;8.93;;;;;;;6.09;67.98;94258.62;1726425;83;21022;-61
2022/03/31 01:15:11;;;;;;;20.53;10.17;;;;;;;6.04;67.14;94259.17;1726280;83;21022;-64
2022/03/31 01:17:40;;;;;;;23.10;10.90;;;;;;;6.06;66.70;94256.94;1705002;84;21032;-61
2022/03/31 01:20:11;;;;;;;20.53;10.07;;;;;;;6.05;66.80;94259.16;1708265;84;21016;-62
2022/03/31 01:22:38;;;;;;;20.80;12.17;;;;;;;6.03;67.63;94255.70;1708361;84;21051;-62
2022/03/31 01:25:07;;;;;;;26.30;13.30;;;;;;;5.93;67.71;94244.14;1706647;84;21092;-62
2022/03/31 01:27:40;;;;;;;39.37;18.80;;;;;;;5.95;67.06;94239.77;1757218;81;21023;-62
2022/03/31 01:30:11;;;;;;;36.08;18.48;;;;;;;5.95;66.74;94234.08;1757304;82;21050;-62
2022/03/31 01:32:38;;;;;;;40.30;20.37;;;;;;;5.97;66.80;94232.29;1757137;82;21055;-62
2022/03/31 01:35:06;;;;;;;47.13;21.83;;;;;;;5.91;68.66;94224.98;1757160;82;21007;-62
2022/03/31 01:37:34;;;;;;;48.77;23.73;;;;;;;5.88;68.74;94223.74;1756792;82;21007;-62
2022/03/31 01:40:01;;;;;;;43.07;22.70;;;;;;;5.91;67.48;94238.92;1757019;82;21011;-61
2022/03/31 01:42:28;;;;;;;41.27;22.60;;;;;;;5.93;67.48;94239.75;1756959;82;20975;-61
2022/03/31 01:44:56;;;;;;;50.17;25.40;;;;;;;5.90;67.42;94241.14;1757300;82;20976;-62
2022/03/31 01:47:24;;;;;;;50.53;25.30;;;;;;;5.93;67.11;94235.83;1756868;82;21020;-61
2022/03/31 01:49:51;;;;;;;51.63;24.53;;;;;;;6.02;67.17;94235.66;1757278;82;21492;-61
2022/03/31 01:52:18;;;;;;;47.83;24.50;;;;;;;6.01;68.16;94235.69;1757236;82;21497;-61
2022/03/31 01:54:45;;;;;;;41.20;22.40;;;;;;;6.06;67.52;94229.44;1757304;82;20988;-62
2022/03/31 01:57:13;;;;;;;45.13;23.37;;;;;;;6.09;67.30;94239.44;1757383;82;21007;-63
2022/03/31 01:59:41;;;;;;;54.73;22.30;;;;;;;6.12;67.67;94243.28;1757059;82;21008;-62
2022/03/31 02:02:11;;;;;;;48.20;23.40;;;;;;;6.13;67.74;94223.63;1756985;82;21007;-62
2022/03/31 02:04:40;;;;;;;39.13;20.53;;;;;;;6.22;67.41;94232.58;1757266;82;21519;-62
2022/03/31 02:07:08;;;;;;;43.90;21.27;;;;;;;6.28;67.43;94231.57;1757220;82;21043;-62
2022/03/31 02:09:35;;;;;;;47.47;22.43;;;;;;;6.36;67.36;94232.23;1757395;82;20948;-62
2022/03/31 02:12:03;;;;;;;45.43;22.47;;;;;;;6.40;67.37;94223.84;1757338;82;21098;-62
2022/03/31 02:14:30;;;;;;;48.43;23.80;;;;;;;6.43;67.33;94232.50;1757283;82;21453;-62
2022/03/31 02:16:58;;;;;;;45.33;20.47;;;;;;;6.42;67.37;94232.08;1757127;82;20984;-62
2022/03/31 02:19:25;;;;;;;43.90;22.77;;;;;;;6.47;67.31;94231.97;1757148;82;21027;-62
2022/03/31 02:21:52;;;;;;;44.57;22.83;;;;;;;6.44;67.32;94225.50;1757137;82;21075;-62
2022/03/31 02:24:19;;;;;;;43.83;21.33;;;;;;;6.42;67.84;94209.80;1757827;81;20979;-62
2022/03/31 02:26:47;;;;;;;41.43;21.17;;;;;;;6.41;67.95;94218.58;1762319;81;20979;-62
2022/03/31 02:29:15;;;;;;;35.30;20.70;;;;;;;6.37;67.94;94205.59;1762594;81;20979;-62
2022/03/31 02:31:41;;;;;;;44.03;22.50;;;;;;;6.29;68.06;94214.94;1762516;81;21042;-62
2022/03/31 02:34:08;;;;;;;41.57;23.03;;;;;;;6.29;67.42;94217.56;1762500;81;21033;-62
2022/03/31 02:36:35;;;;;;;38.37;19.33;;;;;;;6.31;67.18;94210.53;1762743;81;21011;-62
2022/03/31 02:39:01;;;;;;;35.90;19.63;;;;;;;6.37;66.93;94213.44;1762940;81;21014;-62
2022/03/31 02:41:28;;;;;;;39.20;18.60;;;;;;;6.35;67.39;94212.61;1762152;81;21003;-62
2022/03/31 02:43:55;;;;;;;36.63;20.90;;;;;;;6.34;67.14;94202.59;1762672;81;20999;-62
2022/03/31 02:46:21;;;;;;;37.67;19.03;;;;;;;6.32;67.37;94199.14;1762494;81;21022;-63
2022/03/31 02:48:48;;;;;;;35.53;19.70;;;;;;;6.27;67.81;94191.84;1762720;81;20996;-62
2022/03/31 02:51:15;;;;;;;36.73;19.70;;;;;;;6.20;67.65;94188.54;1762718;81;20999;-62
2022/03/31 02:56:27;;;;;;;32.97;19.27;;;;;;;6.22;67.75;94185.44;1762894;81;20975;-62
2022/03/31 02:58:53;;;;;;;54.33;23.77;;;;;;;6.18;68.41;94195.56;1762293;81;21031;-62
2022/03/31 03:01:21;;;;;;;41.33;20.73;;;;;;;6.11;68.89;94180.89;1762355;81;20975;-62
2022/03/31 03:03:50;;;;;;;36.83;19.97;;;;;;;6.06;69.30;94182.30;1762541;81;21007;-62
2022/03/31 03:06:17;;;;;;;33.53;19.37;;;;;;;6.02;69.11;94162.34;1762731;81;20987;-62
2022/03/31 03:08:45;;;;;;;40.73;20.73;;;;;;;5.97;69.30;94172.50;1762389;81;21019;-62
2022/03/31 03:11:12;;;;;;;38.27;19.43;;;;;;;5.95;68.98;94169.94;1762787;81;21051;-63
2022/03/31 03:13:38;;;;;;;36.43;19.60;;;;;;;5.97;68.65;94179.92;1762498;81;21004;-62
2022/03/31 03:16:08;;;;;;;37.60;17.93;;;;;;;5.93;69.31;94165.14;1762415;81;20974;-63
2022/03/31 03:18:38;;;;;;;75.80;37.17;;;;;;;5.95;69.21;94171.24;1762429;81;21057;-62
2022/03/31 03:21:07;;;;;;;77.87;39.40;;;;;;;5.94;69.51;94177.36;1762568;81;20948;-62
2022/03/31 03:23:35;;;;;;;80.93;41.00;;;;;;;6.00;69.45;94168.52;1762444;81;21046;-62
2022/03/31 03:26:03;;;;;;;70.80;32.43;;;;;;;6.09;69.20;94181.83;1762515;81;21101;-62
2022/03/31 03:28:32;;;;;;;74.43;36.27;;;;;;;6.19;69.24;94185.94;1745535;81;20984;-62
2022/03/31 03:30:59;;;;;;;68.10;34.40;;;;;;;6.29;69.17;94183.51;1762733;81;21489;-62
2022/03/31 03:33:25;;;;;;;66.47;29.40;;;;;;;6.35;69.27;94176.83;1762593;81;21004;-62
2022/03/31 03:35:52;;;;;;;55.80;27.00;;;;;;;6.44;68.97;94169.17;1762660;81;20996;-62
2022/03/31 03:38:18;;;;;;;96.97;43.00;;;;;;;6.44;68.69;94163.47;1762596;81;21544;-62
2022/03/31 03:40:45;;;;;;;68.73;28.77;;;;;;;6.45;69.13;94163.02;1762578;81;21019;-62
2022/03/31 03:43:12;;;;;;;59.03;26.87;;;;;;;6.52;68.85;94155.87;1762385;81;21050;-62
2022/03/31 03:45:39;;;;;;;62.60;29.10;;;;;;;6.55;68.59;94155.36;1762221;81;21019;-62
2022/03/31 03:48:07;;;;;;;72.40;41.57;;;;;;;6.62;68.31;94161.28;1762364;81;21007;-63
2022/03/31 03:50:34;;;;;;;52.23;31.40;;;;;;;6.61;68.22;94150.40;1762463;81;21027;-62
2022/03/31 03:53:04;;;;;;;207.17;110.33;;;;;;;6.64;67.88;94146.38;1762361;81;21078;-62
2022/03/31 03:55:35;;;;;;;122.47;69.80;;;;;;;6.68;67.90;94151.50;1762587;81;21496;-63
2022/03/31 03:58:02;;;;;;;210.17;113.87;;;;;;;6.72;67.66;94153.13;1762543;81;21019;-62
2022/03/31 04:00:30;;;;;;;141.20;82.00;;;;;;;6.72;67.60;94142.63;1762611;81;21086;-62
2022/03/31 04:02:57;;;;;;;91.70;45.80;;;;;;;6.71;67.82;94147.94;1762292;81;21047;-64
2022/03/31 04:05:25;;;;;;;81.93;38.97;;;;;;;6.69;67.92;94144.49;1762282;81;21051;-64
2022/03/31 04:07:52;;;;;;;107.33;43.57;;;;;;;6.69;67.63;94136.17;1762550;81;21489;-64
2022/03/31 04:10:19;;;;;;;114.17;45.43;;;;;;;6.67;68.25;94148.45;1762433;81;21049;-64
2022/03/31 04:12:45;;;;;;;73.13;33.60;;;;;;;6.63;68.43;94147.29;1762440;81;21003;-67
2022/03/31 04:15:15;;;;;;;83.00;36.23;;;;;;;6.63;68.55;94142.05;1762540;81;21489;-64
2022/03/31 04:17:43;;;;;;;88.57;37.77;;;;;;;6.65;68.60;94136.30;1762398;81;20995;-64
2022/03/31 04:20:13;;;;;;;99.97;41.53;;;;;;;6.66;68.27;94127.09;1762561;81;21030;-64
2022/03/31 04:22:41;;;;;;;112.20;47.27;;;;;;;6.68;68.11;94134.92;1762608;81;21042;-63
2022/03/31 04:25:11;;;;;;;106.33;44.47;;;;;;;6.71;68.21;94147.48;1762215;81;21022;-63
2022/03/31 04:27:39;;;;;;;125.83;56.77;;;;;;;6.76;68.76;94149.13;1762365;81;21127;-63
2022/03/31 04:30:09;;;;;;;142.27;63.07;;;;;;;6.77;68.45;94150.84;1762212;81;21528;-63
2022/03/31 04:32:38;;;;;;;89.13;46.03;;;;;;;6.78;68.64;94150.81;1762306;81;20999;-63
2022/03/31 04:35:07;;;;;;;89.17;45.93;;;;;;;6.77;68.58;94145.59;1762524;81;21007;-63
2022/03/31 04:37:34;;;;;;;94.33;44.73;;;;;;;6.75;68.32;94154.80;1762490;81;21496;-62
2022/03/31 04:40:03;;;;;;;97.40;48.67;;;;;;;6.79;67.90;94151.20;1762174;81;21106;-63
2022/03/31 04:42:30;;;;;;;109.83;46.27;;;;;;;6.83;68.11;94146.73;1762525;81;20999;-63
2022/03/31 04:44:57;;;;;;;90.27;40.97;;;;;;;6.86;67.77;94142.73;1762562;81;21038;-63
2022/03/31 04:47:23;;;;;;;134.97;52.00;;;;;;;6.92;67.52;94135.54;1762331;81;20987;-63
2022/03/31 04:49:50;;;;;;;111.07;45.63;;;;;;;6.88;68.43;94133.92;1762306;81;20996;-63
2022/03/31 04:52:17;;;;;;;132.53;58.70;;;;;;;6.87;68.48;94128.70;1762646;81;21058;-63
2022/03/31 04:54:43;;;;;;;105.10;49.73;;;;;;;6.91;68.11;94129.05;1762450;81;21000;-63
2022/03/31 04:57:16;;;;;;;99.00;47.07;;;;;;;6.97;68.15;94129.31;1762715;81;20984;-64
2022/03/31 04:59:43;;;;;;;127.05;57.17;;;;;;;6.99;68.23;94132.30;1762003;81;21011;-64
2022/03/31 05:02:12;;;;;;;94.07;47.20;;;;;;;7.02;68.10;94120.41;1762124;81;21494;-65
2022/03/31 05:04:39;;;;;;;91.93;47.07;;;;;;;7.06;68.38;94104.16;1762155;81;21547;-64
2022/03/31 05:07:06;;;;;;;91.00;45.50;;;;;;;7.09;68.24;94105.37;1761378;81;21062;-64
2022/03/31 05:09:33;;;;;;;118.80;51.63;;;;;;;7.15;68.28;94106.48;1761490;81;20999;-68
2022/03/31 05:11:59;;;;;;;126.57;53.13;;;;;;;7.21;68.11;94106.78;1761085;81;21501;-63
2022/03/31 05:14:26;;;;;;;118.90;56.47;;;;;;;7.24;68.61;94100.98;1761905;81;20999;-64
2022/03/31 05:16:53;;;;;;;131.57;60.53;;;;;;;7.27;68.13;94102.20;1760959;81;21019;-64
2022/03/31 05:19:19;;;;;;;131.57;56.87;;;;;;;7.35;67.87;94111.14;1761930;81;21062;-65
2022/03/31 05:21:46;;;;;;;107.63;49.07;;;;;;;7.40;68.25;94109.70;1762279;81;21062;-69
2022/03/31 05:24:14;;;;;;;83.63;43.63;;;;;;;7.45;67.88;94108.65;1761786;81;21062;-64
2022/03/31 05:26:40;;;;;;;79.03;41.43;;;;;;;7.51;67.98;94111.53;1761984;81;21050;-64
2022/03/31 05:29:07;;;;;;;68.03;36.67;;;;;;;7.51;67.83;94098.41;1761988;81;21020;-63
2022/03/31 05:31:34;;;;;;;79.70;40.43;;;;;;;7.55;67.34;94106.15;1762188;81;20991;-66
2022/03/31 05:34:00;;;;;;;70.80;38.20;;;;;;;7.59;67.29;94103.84;1762707;81;20995;-63
2022/03/31 05:36:27;;;;;;;79.20;36.23;;;;;;;7.65;67.25;94104.10;1761989;81;21095;-63
2022/03/31 05:38:56;;;;;;;64.33;33.20;;;;;;;7.75;67.46;94105.98;1762210;81;20979;-65
2022/03/31 05:41:24;;;;;;;51.50;27.33;;;;;;;7.86;67.10;94100.39;1761285;81;21539;-65
2022/03/31 05:43:51;;;;;;;40.93;22.97;;;;;;;7.97;66.60;94108.80;1762432;81;21073;-63
2022/03/31 05:46:18;;;;;;;42.20;18.87;;;;;;;8.06;66.36;94118.98;1762264;81;21011;-64
2022/03/31 05:48:44;;;;;;;166.47;90.33;;;;;;;8.14;66.31;94116.99;1743837;81;21066;-66
2022/03/31 05:51:12;;;;;;;57.83;38.00;;;;;;;8.21;66.87;94125.52;1762279;81;21015;-65
2022/03/31 05:53:39;;;;;;;79.37;41.53;;;;;;;8.29;66.21;94131.40;1761502;81;21448;-65
2022/03/31 05:56:07;;;;;;;55.30;28.40;;;;;;;8.34;67.08;94122.91;1761994;81;22381;-65
2022/03/31 05:58:35;;;;;;;61.60;28.50;;;;;;;8.39;67.49;94134.55;1762515;81;21055;-67
2022/03/31 06:01:02;;;;;;;147.03;60.97;;;;;;;8.48;66.91;94136.06;1762074;81;21066;-65
2022/03/31 06:03:28;;;;;;;97.23;46.53;;;;;;;8.57;66.37;94139.23;1761416;81;21038;-65
2022/03/31 06:05:55;;;;;;;76.67;36.90;;;;;;;8.68;66.41;94132.75;1761226;81;21062;-66
2022/03/31 06:08:23;;;;;;;59.93;22.57;;;;;;;8.78;66.28;94137.63;1761449;81;21595;-66
2022/03/31 06:10:50;;;;;;;54.07;19.93;;;;;;;8.92;65.43;94145.05;1761129;81;21007;-65
2022/03/31 06:13:17;;;;;;;56.73;19.60;;;;;;;9.07;65.27;94133.97;1761653;81;21014;-64
2022/03/31 06:15:44;;;;;;;57.00;20.67;;;;;;;9.25;64.93;94132.91;1762128;81;21010;-62
2022/03/31 06:18:10;;;;;;;59.20;23.50;;;;;;;9.37;63.90;94136.84;1761113;81;21055;-63
2022/03/31 06:20:37;;;;;;;55.87;21.80;;;;;;;9.50;64.27;94128.44;1761746;81;21042;-66
2022/03/31 06:23:04;;;;;;;60.63;23.17;;;;;;;9.62;63.57;94128.41;1761905;81;20991;-66
2022/03/31 06:25:31;;;;;;;41.80;17.10;;;;;;;9.78;63.07;94121.23;1759479;81;21078;-66
2022/03/31 06:27:58;;;;;;;44.40;18.47;;;;;;;9.92;62.55;94122.87;1748297;82;21561;-64
2022/03/31 06:30:25;;;;;;;64.00;19.57;;;;;;;10.04;61.65;94121.06;1749040;81;20995;-68
2022/03/31 06:32:51;;;;;;;51.07;20.33;;;;;;;10.12;60.98;94120.29;1748744;82;21612;-67
2022/03/31 06:35:19;;;;;;;60.57;27.23;;;;;;;10.21;61.03;94123.03;1748596;81;21031;-65
2022/03/31 06:37:47;;;;;;;50.37;20.90;;;;;;;10.26;60.63;94120.21;1748895;82;21485;-64
2022/03/31 06:40:16;;;;;;;47.50;17.93;;;;;;;10.29;60.87;94120.96;1747332;82;21153;-66
2022/03/31 06:42:44;;;;;;;35.07;15.37;;;;;;;10.37;60.85;94121.96;1747805;81;21062;-63
2022/03/31 06:45:14;;;;;;;36.30;13.07;;;;;;;10.42;59.65;94120.45;1748390;81;21122;-63
2022/03/31 06:47:41;;;;;;;30.67;12.53;;;;;;;10.43;59.50;94120.84;1748734;82;21050;-68
2022/03/31 06:50:10;;;;;;;40.33;12.80;;;;;;;10.50;59.59;94123.63;1748116;82;21043;-67
2022/03/31 06:52:37;;;;;;;29.43;11.20;;;;;;;10.56;59.58;94123.39;1747952;82;21098;-63
2022/03/31 06:55:06;;;;;;;30.97;10.57;;;;;;;10.64;59.61;94127.88;1789736;80;21135;-64
2022/03/31 06:57:32;;;;;;;49.07;29.60;;;;;;;10.70;58.89;94124.11;1749162;82;21524;-64
2022/03/31 06:59:59;;;;;;;83.40;27.00;;;;;;;10.76;58.58;94117.23;1749144;81;21047;-63
2022/03/31 07:02:25;;;;;;;52.23;17.90;;;;;;;10.83;58.03;94114.30;1749207;81;21011;-62
2022/03/31 07:04:52;;;;;;;41.80;15.67;;;;;;;10.93;58.07;94117.84;1748817;82;21095;-67
2022/03/31 07:07:19;;;;;;;31.37;13.10;;;;;;;10.98;57.48;94114.06;1749317;82;20984;-64
2022/03/31 07:09:45;;;;;;;34.30;11.37;;;;;;;11.03;56.02;94113.87;1748169;82;20977;-63
2022/03/31 07:12:12;;;;;;;24.43;9.60;;;;;;;11.08;55.37;94109.71;1747807;82;21050;-62
2022/03/31 07:14:39;;;;;;;28.27;9.70;;;;;;;11.12;54.70;94104.70;1747965;81;21015;-62
2022/03/31 07:17:06;;;;;;;33.73;10.87;;;;;;;11.17;55.33;94103.56;1748889;82;21529;-62
2022/03/31 07:19:34;;;;;;;28.53;10.60;;;;;;;11.22;55.43;94100.25;1748840;82;21047;-63
2022/03/31 07:22:00;;;;;;;33.50;12.50;;;;;;;11.27;55.03;94101.37;1748247;82;21023;-63
2022/03/31 07:24:27;;;;;;;31.37;12.93;;;;;;;11.32;54.62;94091.93;1747581;82;21051;-63
2022/03/31 07:26:54;;;;;;;29.30;11.87;;;;;;;11.33;53.00;94086.56;1756406;81;21136;-66
2022/03/31 07:29:20;;;;;;;42.47;19.57;;;;;;;11.35;53.80;94094.42;1761456;81;21034;-63
2022/03/31 07:31:47;;;;;;;31.07;14.63;;;;;;;11.35;53.80;94093.95;1761586;81;21536;-62
2022/03/31 07:34:13;;;;;;;34.27;13.00;;;;;;;11.36;53.96;94085.09;1762372;81;20999;-62
2022/03/31 07:36:41;;;;;;;32.97;12.67;;;;;;;11.41;54.25;94093.66;1762347;81;21441;-64
2022/03/31 07:39:08;;;;;;;33.30;12.00;;;;;;;11.45;53.78;94078.55;1762713;81;21008;-64
2022/03/31 07:41:35;;;;;;;28.00;10.50;;;;;;;11.47;54.00;94076.23;1796486;79;21074;-65
2022/03/31 07:44:02;;;;;;;28.80;10.77;;;;;;;11.48;53.89;94072.64;1760841;81;21086;-64
2022/03/31 07:46:32;;;;;;;31.67;11.87;;;;;;;11.49;53.58;94074.84;1760783;81;21066;-64
2022/03/31 07:48:57;;;;;;;36.13;13.27;;;;;;;11.54;54.02;94081.21;1760993;79;21015;-65
2022/03/31 07:51:25;;;;;;;36.73;15.93;;;;;;;11.58;54.06;94082.80;1762106;81;21011;-62
2022/03/31 07:53:51;;;;;;;44.40;22.63;;;;;;;11.63;53.69;94082.11;1762103;81;20994;-63
2022/03/31 07:56:18;;;;;;;33.17;15.07;;;;;;;11.65;53.42;94085.55;1761265;81;21055;-63
2022/03/31 07:58:45;;;;;;;51.77;19.07;;;;;;;11.67;53.26;94091.16;1762190;81;21069;-64
2022/03/31 08:01:12;;;;;;;37.73;15.13;;;;;;;11.72;53.19;94086.09;1761954;81;21484;-62
2022/03/31 08:03:39;;;;;;;33.27;12.83;;;;;;;11.76;52.33;94076.63;1761608;81;21034;-62
2022/03/31 08:06:08;;;;;;;29.20;12.27;;;;;;;11.82;52.23;94074.19;1761736;81;21074;-63
2022/03/31 08:08:35;;;;;;;33.27;17.87;;;;;;;11.87;52.05;94074.86;1761436;81;21153;-64
2022/03/31 08:11:02;;;;;;;33.87;12.00;;;;;;;11.93;52.04;94071.06;1761923;81;21627;-62
2022/03/31 08:13:29;;;;;;;39.30;14.97;;;;;;;11.98;51.70;94068.58;1762472;81;21038;-65
2022/03/31 08:15:58;;;;;;;25.83;10.63;;;;;;;12.03;51.21;94074.97;1761481;81;21015;-63
2022/03/31 08:18:32;;;;;;;27.73;9.00;;;;;;;12.04;51.25;94077.52;1758781;80;21483;-63
2022/03/31 08:20:59;;;;;;;21.67;7.73;;;;;;;12.09;51.34;94083.44;1759689;81;21033;-64
2022/03/31 08:23:26;;;;;;;20.80;9.47;;;;;;;12.12;51.12;94091.25;1761112;81;20985;-62
2022/03/31 08:25:54;;;;;;;22.97;9.10;;;;;;;12.17;51.54;94095.43;1760584;80;21017;-63
2022/03/31 08:28:21;;;;;;;21.43;10.00;;;;;;;12.21;51.09;94088.60;1753619;82;21101;-66
2022/03/31 08:30:48;;;;;;;24.73;8.10;;;;;;;12.24;51.31;94090.23;1752728;82;21528;-63
2022/03/31 08:33:15;;;;;;;19.12;7.35;;;;;;;12.27;50.83;94090.96;1722938;82;21081;-63
2022/03/31 08:35:42;;;;;;;19.80;7.33;;;;;;;12.27;50.92;94081.70;1754063;82;21006;-64
2022/03/31 08:38:09;;;;;;;20.00;9.17;;;;;;;12.28;51.19;94085.20;1753133;82;21089;-65
2022/03/31 08:40:36;;;;;;;19.90;8.77;;;;;;;12.27;50.95;94076.42;1754348;82;21066;-63
2022/03/31 08:43:03;;;;;;;25.13;10.93;;;;;;;12.28;51.20;94065.37;1753351;82;21496;-63
2022/03/31 08:45:34;;;;;;;22.80;9.07;;;;;;;12.28;51.12;94064.05;1754087;82;21042;-62
2022/03/31 08:48:01;;;;;;;20.33;9.20;;;;;;;12.21;51.09;94063.95;1752965;82;21061;-65
2022/03/31 08:50:29;;;;;;;23.53;8.27;;;;;;;12.19;51.35;94060.05;1753682;82;21058;-64
2022/03/31 08:52:55;;;;;;;20.00;9.07;;;;;;;12.18;51.94;94062.79;1752854;82;21033;-62
2022/03/31 08:55:22;;;;;;;19.43;8.43;;;;;;;12.12;52.36;94063.48;1754156;82;20987;-64
2022/03/31 08:57:52;;;;;;;21.97;8.50;;;;;;;12.11;53.09;94055.61;1753749;82;21010;-65
2022/03/31 09:00:20;;;;;;;17.30;7.53;;;;;;;12.10;53.09;94057.88;1753163;82;21039;-63
2022/03/31 09:03:05;;;;;;;21.50;8.00;;;;;;;12.12;53.13;94062.63;1753436;82;21109;-63
2022/03/31 09:05:38;;;;;;;25.83;9.67;;;;;;;12.17;53.21;94051.36;1754034;82;21065;-62
2022/03/31 09:08:09;;;;;;;29.27;11.67;;;;;;;12.23;53.00;94058.13;1753204;82;21010;-62
2022/03/31 09:10:38;;;;;;;35.65;12.53;;;;;;;12.25;52.72;94070.81;1754041;82;21060;-61
2022/03/31 09:13:19;;;;;;;28.30;10.75;;;;;;;12.29;52.76;94063.09;1725117;82;21464;-62
2022/03/31 09:15:58;;;;;;;19.23;7.05;;;;;;;12.32;52.98;94062.94;1753861;82;21037;-62
2022/03/31 09:18:28;;;;;;;18.60;6.57;;;;;;;12.32;53.57;94055.89;1753171;82;21081;-62
2022/03/31 09:21:00;;;;;;;17.33;5.20;;;;;;;12.32;54.28;94051.92;1753677;82;21574;-62
2022/03/31 09:23:34;;;;;;;17.13;6.60;;;;;;;12.28;54.46;94046.86;1754085;81;21022;-62
2022/03/31 09:26:12;;;;;;;27.50;9.95;;;;;;;12.31;54.28;94055.95;1753193;82;21089;-60
2022/03/31 09:28:41;;;;;;;27.85;11.85;;;;;;;12.29;54.32;94046.76;1754110;82;21065;-60
2022/03/31 09:31:11;;;;;;;27.37;12.20;;;;;;;12.21;54.37;94048.94;1754451;82;21010;-59
2022/03/31 09:33:45;;;;;;;28.70;11.95;;;;;;;12.20;54.23;94041.95;1754380;82;21555;-60
2022/03/31 09:36:18;;;;;;;29.07;12.60;;;;;;;12.25;54.35;94039.94;1752947;82;21038;-60
2022/03/31 09:39:01;;;;;;;36.73;14.80;;;;;;;12.36;54.48;94038.06;1754754;82;21057;-59
2022/03/31 09:41:34;;;;;;;32.00;13.85;;;;;;;12.40;53.89;94033.46;1754584;82;20986;-60
2022/03/31 09:44:05;;;;;;;34.53;14.15;;;;;;;12.38;54.32;94027.42;1754710;82;21508;-60
2022/03/31 09:46:38;;;;;;;32.28;14.80;;;;;;;12.34;54.41;94027.55;1752755;82;21555;-60
2022/03/31 09:49:22;;;;;;;36.65;15.53;;;;;;;12.33;53.84;94020.56;1753374;82;21069;-61
2022/03/31 09:51:52;;;;;;;37.30;14.83;;;;;;;12.39;53.93;94019.39;1753759;82;21005;-61
2022/03/31 09:54:26;;;;;;;34.13;16.02;;;;;;;12.45;54.38;94011.16;1753728;82;21057;-62
2022/03/31 09:56:55;;;;;;;31.35;13.45;;;;;;;12.55;54.04;94006.25;1754192;82;21488;-60
2022/03/31 09:59:42;;;;;;;27.30;11.35;;;;;;;12.65;53.63;94003.95;1754168;82;21523;-60
2022/03/31 10:02:09;;;;;;;31.85;10.98;;;;;;;12.70;52.58;93993.98;1754337;82;20994;-60
2022/03/31 10:04:36;;;;;;;32.85;13.13;;;;;;;12.78;52.45;93993.99;1754185;82;21014;-59
2022/03/31 10:07:04;;;;;;;28.67;13.32;;;;;;;12.82;52.40;93999.96;1754607;82;21507;-59
2022/03/31 10:09:32;;;;;;;31.05;14.33;;;;;;;12.77;52.85;93997.59;1754285;82;20998;-60
2022/03/31 10:12:10;;;;;;;27.50;12.75;;;;;;;12.75;52.61;93993.28;1754356;82;20983;-60
2022/03/31 10:14:59;;;;;;;22.90;11.03;;;;;;;12.72;52.65;93988.16;1754529;82;21026;-59
2022/03/31 10:17:30;;;;;;;32.50;11.63;;;;;;;12.78;52.17;93984.73;1754517;82;21003;-59
2022/03/31 10:20:14;;;;;;;21.02;10.55;;;;;;;12.84;52.32;93976.92;1754387;82;21014;-62
2022/03/31 10:25:41;;;;;;;21.17;10.70;;;;;;;13.08;52.40;93973.44;1754614;82;21033;-61
2022/03/31 10:28:16;;;;;;;30.23;11.73;;;;;;;13.21;51.32;93971.83;1758588;80;21022;-61
2022/03/31 10:31:01;;;;;;;26.73;10.50;;;;;;;13.28;50.93;93969.73;1760230;81;21025;-61
2022/03/31 10:33:37;;;;;;;28.83;11.00;;;;;;;13.37;51.46;93967.89;1760189;81;20990;-61
2022/03/31 10:36:15;;;;;;;30.95;12.03;;;;;;;13.38;50.20;93968.29;1760011;81;21002;-62
2022/03/31 10:39:01;;;;;;;22.37;12.13;;;;;;;13.37;50.61;93971.86;1760170;81;21001;-61
2022/03/31 10:41:33;;;;;;;27.73;12.58;;;;;;;13.30;50.85;93967.83;1760142;81;21475;-61
2022/03/31 10:44:15;;;;;;;37.00;12.13;;;;;;;13.19;50.98;93954.31;1760260;81;21467;-61
2022/03/31 10:46:44;;;;;;;31.55;12.10;;;;;;;13.12;51.19;93946.31;1760199;81;21006;-61
2022/03/31 10:49:19;;;;;;;29.80;10.20;;;;;;;13.11;51.25;93940.64;1760056;81;21062;-61
2022/03/31 10:51:46;;;;;;;31.97;11.55;;;;;;;13.10;50.67;93921.70;1759597;81;21057;-61
2022/03/31 10:54:33;;;;;;;26.10;10.75;;;;;;;13.13;50.24;93910.49;1760265;81;21081;-61
2022/03/31 10:57:13;;;;;;;20.43;9.95;;;;;;;13.17;50.36;93903.22;1760135;81;21010;-61
2022/03/31 10:59:42;;;;;;;30.05;10.40;;;;;;;13.21;50.66;93912.23;1760115;81;20999;-61
2022/03/31 11:02:16;;;;;;;26.52;12.03;;;;;;;13.29;49.88;93907.02;1760064;81;21429;-61
2022/03/31 11:04:52;;;;;;;22.87;9.93;;;;;;;13.34;49.62;93900.52;1759922;81;20997;-62
2022/03/31 11:07:25;;;;;;;27.90;9.80;;;;;;;13.43;49.42;93888.56;1760231;81;21028;-61
2022/03/31 11:10:06;;;;;;;23.95;10.03;;;;;;;13.55;49.81;93882.53;1760243;81;21010;-61
2022/03/31 11:12:33;;;;;;;25.90;10.58;;;;;;;13.70;49.37;93872.84;1759934;81;21085;-59
2022/03/31 11:15:07;;;;;;;32.85;9.80;;;;;;;13.87;48.91;93861.74;1760130;81;21010;-59
2022/03/31 11:17:36;;;;;;;32.83;12.60;;;;;;;13.96;48.67;93864.70;1760117;81;21058;-60
2022/03/31 11:20:22;;;;;;;31.10;10.10;;;;;;;14.09;48.04;93856.87;1759980;81;20986;-61
2022/03/31 11:22:54;;;;;;;23.70;8.73;;;;;;;14.22;48.51;93847.70;1760107;81;21492;-62
2022/03/31 11:25:23;;;;;;;23.73;8.75;;;;;;;14.34;48.04;93840.77;1760166;81;20970;-59
2022/03/31 11:27:52;;;;;;;21.48;9.20;;;;;;;14.44;47.12;93832.66;1759847;80;21049;-61
2022/03/31 11:30:26;;;;;;;22.95;8.83;;;;;;;14.63;47.96;93825.74;1760077;81;20998;-61
2022/03/31 11:32:56;;;;;;;18.30;9.10;;;;;;;14.70;46.66;93826.59;1759906;81;21024;-62
2022/03/31 11:35:26;;;;;;;18.15;7.47;;;;;;;14.74;47.50;93819.30;1760022;81;21001;-60